Terminal Aerodrome Forecast
Issued by NWS Jacksonville, FL

Home | Current Version | Previous Version | Text Only | Print | Product List | Glossary On
Versions: 1 2 3 4 5 6 7 8 9 10 11 12 13 14 15 16
000
FTUS42 KJAX 282325
TAFGNV
TAF
KGNV 282325Z 2900/2924 23003KT P6SM -RA SCT030 BKN100 OVC250
     FM290300 21003KT P6SM SCT020 BKN120
      TEMPO 2907/2911 3SM BR SCT004
     FM291400 24005KT P6SM VCSH SCT025 SCT120
     FM291700 25007KT P6SM VCTS SCT030CB
      TEMPO 2918/2922 3SM TSRA BR BKN020CB=

USA.gov is the U.S. government's official web portal to all federal, state and local government web resources and services.